Time;durP1;ratioP1;P1;durP2;ratioP2;P2;SDS_P1;SDS_P2;PMS_P1;PMS_P2;Temp;Humidity;BMP_temperature;BMP_pressure;BME280_temperature;BME280_humidity;BME280_pressure;Samples;Min_cycle;Max_cycle;Signal;HPM_P1;HPM_P2
2021/12/17 00:06:57;;;;;;;;;;;;;;;21.11;33.49;97547.03;10406552;28;2173;-46
2021/12/17 00:11:57;;;;;;;;;;;;;;;21.06;33.72;97548.53;10399800;28;2176;-49
2021/12/17 00:17:04;;;;;;;;;;;;;;;21.03;33.58;97541.13;10402763;28;2163;-48
2021/12/17 00:44:14;;;;;;;;;;;;;;;20.85;33.60;97533.34;10398798;28;1981;-51
2021/12/17 00:48:47;;;;;;;;;;;;;;;20.81;33.54;97536.66;10404274;28;1885;-49
2021/12/17 00:53:47;;;;;;;;;;;;;;;20.82;33.64;97557.50;10403153;28;2008;-47
2021/12/17 00:58:48;;;;;;;;;;;;;;;20.81;33.51;97558.53;10399493;28;1868;-50
2021/12/17 01:03:48;;;;;;;;;;;;;;;20.80;33.42;97561.41;10403390;28;1851;-51
2021/12/17 01:08:49;;;;;;;;;;;;;;;20.75;33.39;97563.94;10399208;28;2130;-50
2021/12/17 01:13:49;;;;;;;;;;;;;;;20.69;33.73;97547.19;10402871;28;1910;-49
2021/12/17 01:45:04;;;;;;;;;;;;;;;20.59;33.57;97510.09;10400107;28;1818;-51
2021/12/17 02:00:43;;;;;;;;;;;;;;;20.51;33.53;97509.66;10400716;28;1830;-53
2021/12/17 02:05:45;;;;;;;;;;;;;;;20.51;33.53;97509.66;10408258;28;1802;-49
2021/12/17 02:31:43;;;;;;;;;;;;;;;20.41;33.46;97488.34;10405393;28;1770;-56
2021/12/17 02:36:43;;;;;;;;;;;;;;;20.37;33.53;97485.38;10409290;28;1918;-57
2021/12/17 02:47:03;;;;;;;;;;;;;;;20.33;33.41;97465.00;10411348;28;1875;-58
2021/12/17 02:52:06;;;;;;;;;;;;;;;20.30;33.45;97471.53;10406585;28;1969;-58
2021/12/17 02:57:06;;;;;;;;;;;;;;;20.27;33.57;97469.38;10406143;28;1954;-57
2021/12/17 03:02:07;;;;;;;;;;;;;;;20.24;33.66;97472.44;10402513;28;2000;-58
2021/12/17 03:07:09;;;;;;;;;;;;;;;20.23;33.55;97465.59;10407939;28;2028;-58
2021/12/17 03:12:15;;;;;;;;;;;;;;;20.23;33.44;97481.41;10399632;28;2004;-57
2021/12/17 03:17:28;;;;;;;;;;;;;;;20.17;33.66;97477.00;10402357;28;2005;-57
2021/12/17 03:27:47;;;;;;;;;;;;;;;20.13;33.48;97479.28;10402133;28;1923;-53
2021/12/17 03:32:47;;;;;;;;;;;;;;;20.14;33.54;97480.09;10407442;28;2092;-54
2021/12/17 03:37:47;;;;;;;;;;;;;;;20.10;33.52;97489.47;10401284;28;2043;-59
2021/12/17 03:42:50;;;;;;;;;;;;;;;20.10;33.52;97482.38;10404619;28;2004;-57
2021/12/17 03:47:51;;;;;;;;;;;;;;;20.09;33.59;97482.63;10404300;28;1953;-58
2021/12/17 03:52:51;;;;;;;;;;;;;;;20.06;33.61;97491.78;10404899;28;2009;-59
2021/12/17 03:57:51;;;;;;;;;;;;;;;20.05;33.64;97486.75;10400107;28;1882;-58
2021/12/17 04:02:52;;;;;;;;;;;;;;;20.03;33.51;97489.59;10405815;28;2163;-59
2021/12/17 04:07:52;;;;;;;;;;;;;;;20.03;33.61;97480.91;10402354;28;2372;-57
2021/12/17 04:13:24;;;;;;;;;;;;;;;20.00;33.55;97466.38;10404509;28;1918;-59
2021/12/17 04:18:22;;;;;;;;;;;;;;;19.96;33.65;97462.59;10402566;28;1993;-59
2021/12/17 04:23:22;;;;;;;;;;;;;;;19.96;33.55;97443.34;10407846;28;1817;-59
2021/12/17 04:28:23;;;;;;;;;;;;;;;19.92;33.62;97427.22;10403698;28;1949;-58
2021/12/17 04:33:23;;;;;;;;;;;;;;;19.95;33.31;97437.28;10399712;28;1981;-53
2021/12/17 04:38:26;;;;;;;;;;;;;;;19.92;33.62;97435.13;10405218;28;1947;-56
2021/12/17 04:43:41;;;;;;;;;;;;;;;19.98;33.89;97436.03;10404711;28;2100;-58
2021/12/17 04:59:33;;;;;;;;;;;;;;;20.16;33.52;97420.09;10400843;28;1839;-57
2021/12/17 05:04:33;;;;;;;;;;;;;;;20.24;33.52;97420.59;10404594;28;1898;-58
2021/12/17 05:09:43;;;;;;;;;;;;;;;20.28;33.61;97405.13;10400086;28;2027;-57
2021/12/17 05:20:12;;;;;;;;;;;;;;;20.38;33.31;97402.69;10400963;28;2081;-58
2021/12/17 05:25:12;;;;;;;;;;;;;;;20.48;33.26;97415.28;10397407;28;1964;-57
2021/12/17 05:30:12;;;;;;;;;;;;;;;20.51;33.05;97426.16;10403979;28;2021;-58
2021/12/17 05:35:13;;;;;;;;;;;;;;;20.55;33.02;97416.75;10409992;28;2068;-58
2021/12/17 05:40:13;;;;;;;;;;;;;;;20.59;33.07;97427.63;10409606;28;1769;-58
2021/12/17 05:50:33;;;;;;;;;;;;;;;20.65;32.89;97463.59;10409603;28;2024;-58
2021/12/17 05:55:34;;;;;;;;;;;;;;;20.69;32.81;97448.94;10407369;28;2036;-57
2021/12/17 06:00:34;;;;;;;;;;;;;;;20.68;32.77;97458.66;10405365;28;1985;-57
2021/12/17 06:05:35;;;;;;;;;;;;;;;20.70;32.79;97472.41;10408759;28;2055;-58
2021/12/17 06:10:35;;;;;;;;;;;;;;;20.72;32.86;97486.13;10407340;28;1913;-58
2021/12/17 06:15:36;;;;;;;;;;;;;;;20.73;32.37;97493.00;10403781;28;2011;-57
2021/12/17 06:20:36;;;;;;;;;;;;;;;20.77;32.41;97494.13;10406986;28;2014;-58
2021/12/17 06:25:37;;;;;;;;;;;;;;;20.81;32.61;97489.22;10409319;28;1918;-57
2021/12/17 06:30:37;;;;;;;;;;;;;;;20.80;33.20;97490.25;10405898;28;1870;-58
2021/12/17 06:35:38;;;;;;;;;;;;;;;20.71;32.33;97483.75;10409037;28;1946;-56
2021/12/17 06:40:38;;;;;;;;;;;;;;;20.81;32.70;97487.38;10401791;28;2029;-57
2021/12/17 06:45:54;;;;;;;;;;;;;;;20.88;32.99;97509.13;10399170;28;1937;-58
2021/12/17 07:11:50;;;;;;;;;;;;;;;20.92;32.46;97470.72;10421215;28;2074;-55
2021/12/17 07:23:04;;;;;;;;;;;;;;;20.93;32.34;97469.72;10405269;28;1922;-58
2021/12/17 07:43:37;;;;;;;;;;;;;;;20.97;32.70;97494.56;10406085;28;1873;-57
2021/12/17 07:48:38;;;;;;;;;;;;;;;21.01;32.53;97492.25;10406362;28;1818;-56
2021/12/17 07:53:38;;;;;;;;;;;;;;;21.01;32.14;97494.88;10403236;28;1978;-55
2021/12/17 07:58:39;;;;;;;;;;;;;;;21.00;32.44;97499.34;10400401;28;1859;-57
2021/12/17 08:03:39;;;;;;;;;;;;;;;21.04;32.92;97503.16;10397977;28;1837;-58
2021/12/17 08:08:40;;;;;;;;;;;;;;;21.02;32.31;97497.31;10404868;28;1806;-56
2021/12/17 08:13:42;;;;;;;;;;;;;;;21.05;32.57;97496.06;10402238;28;1902;-60
2021/12/17 08:23:20;;;;;;;;;;;;;;;21.12;33.56;97502.00;10400488;28;1876;-56
2021/12/17 08:24:54;;;;;;;;;;;;;;;21.16;33.83;97504.97;10394682;28;1823;-57
2021/12/17 08:34:36;;;;;;;;;;;;;;;21.10;33.44;97490.88;10401053;28;1902;-58
2021/12/17 08:39:37;;;;;;;;;;;;;;;21.11;33.36;97494.31;10401200;28;1723;-56
2021/12/17 08:44:37;;;;;;;;;;;;;;;21.10;33.72;97482.16;10400333;28;1878;-54
2021/12/17 08:49:40;;;;;;;;;;;;;;;21.14;33.50;97491.22;10401530;28;1917;-53
2021/12/17 08:54:40;;;;;;;;;;;;;;;21.14;33.77;97497.28;10397441;28;1918;-58
2021/12/17 08:59:41;;;;;;;;;;;;;;;21.21;34.13;97487.38;10392400;28;1822;-57
2021/12/17 09:04:41;;;;;;;;;;;;;;;21.32;34.39;97496.28;10400109;28;2171;-55
2021/12/17 09:09:44;;;;;;;;;;;;;;;21.29;34.34;97494.13;10394190;28;1909;-58
2021/12/17 09:14:44;;;;;;;;;;;;;;;21.30;34.12;97487.81;10392022;28;2172;-53
2021/12/17 09:19:46;;;;;;;;;;;;;;;21.36;34.07;97484.22;10388419;28;1869;-56
2021/12/17 09:24:46;;;;;;;;;;;;;;;21.36;34.33;97482.41;10397960;28;1713;-55
2021/12/17 09:29:46;;;;;;;;;;;;;;;21.35;34.52;97487.91;10396074;28;1853;-56
2021/12/17 09:34:47;;;;;;;;;;;;;;;21.38;34.50;97485.59;10394911;28;1921;-55
2021/12/17 09:39:47;;;;;;;;;;;;;;;21.38;34.50;97485.59;10397154;28;1767;-57
2021/12/17 09:44:48;;;;;;;;;;;;;;;21.42;34.34;97486.72;10388928;28;1834;-54
2021/12/17 09:49:51;;;;;;;;;;;;;;;21.43;34.28;97476.97;10398475;28;1772;-57
2021/12/17 09:54:52;;;;;;;;;;;;;;;21.43;34.28;97472.47;10396995;28;1922;-59
2021/12/17 09:59:53;;;;;;;;;;;;;;;21.48;34.26;97479.69;10384356;28;1882;-54
2021/12/17 10:04:57;;;;;;;;;;;;;;;21.46;34.58;97481.75;10390052;28;1890;-57
2021/12/17 10:09:58;;;;;;;;;;;;;;;21.49;34.32;97460.19;10389861;28;1823;-55
2021/12/17 10:15:06;;;;;;;;;;;;;;;21.47;34.70;97455.16;10392385;28;1938;-56
2021/12/17 10:20:07;;;;;;;;;;;;;;;21.47;34.72;97449.09;10399762;28;1905;-57
2021/12/17 10:25:08;;;;;;;;;;;;;;;21.47;34.67;97443.81;10405029;28;1865;-53
2021/12/17 10:30:16;;;;;;;;;;;;;;;21.46;34.60;97436.91;10398714;28;1750;-56
2021/12/17 10:35:17;;;;;;;;;;;;;;;21.50;34.50;97440.69;10409871;28;1898;-58
2021/12/17 10:40:22;;;;;;;;;;;;;;;21.49;34.50;97447.00;10401651;28;1778;-55
2021/12/17 10:45:28;;;;;;;;;;;;;;;21.47;34.74;97443.81;10404622;28;1798;-55
2021/12/17 10:50:29;;;;;;;;;;;;;;;21.47;34.40;97446.44;10406697;28;1766;-56
2021/12/17 10:55:30;;;;;;;;;;;;;;;21.47;34.68;97454.34;10405317;28;1967;-55
2021/12/17 11:00:31;;;;;;;;;;;;;;;21.49;34.49;97460.19;10398608;28;1821;-55
2021/12/17 11:05:34;;;;;;;;;;;;;;;21.53;34.51;97463.97;10405174;28;1906;-56
2021/12/17 11:10:36;;;;;;;;;;;;;;;21.52;34.41;97457.06;10396396;28;2320;-54
2021/12/17 11:15:36;;;;;;;;;;;;;;;21.55;34.38;97446.06;10402231;28;1922;-58
2021/12/17 11:20:57;;;;;;;;;;;;;;;21.56;34.26;97458.19;10399060;28;1823;-55
2021/12/17 11:25:57;;;;;;;;;;;;;;;21.60;34.57;97448.75;10398062;28;1940;-56
2021/12/17 11:30:57;;;;;;;;;;;;;;;21.56;34.69;97429.16;10393500;28;1815;-55
2021/12/17 11:35:58;;;;;;;;;;;;;;;21.60;34.53;97422.38;10401376;28;1910;-57
2021/12/17 11:41:07;;;;;;;;;;;;;;;21.57;34.58;97415.75;10400432;28;1906;-57
2021/12/17 11:46:10;;;;;;;;;;;;;;;21.55;34.48;97427.56;10395611;28;1897;-56
2021/12/17 11:51:17;;;;;;;;;;;;;;;21.57;34.53;97430.78;10403698;28;1898;-55
2021/12/17 11:56:30;;;;;;;;;;;;;;;21.60;34.74;97432.91;10393857;28;2008;-56
2021/12/17 12:01:51;;;;;;;;;;;;;;;21.60;34.79;97431.09;10397116;28;1759;-56
2021/12/17 12:07:00;;;;;;;;;;;;;;;21.58;34.86;97427.09;10385373;28;1902;-58
2021/12/17 12:12:08;;;;;;;;;;;;;;;21.57;34.60;97409.66;10378891;28;2200;-56
2021/12/17 12:17:09;;;;;;;;;;;;;;;21.57;34.80;97409.66;10372546;28;1985;-57
2021/12/17 12:22:09;;;;;;;;;;;;;;;21.58;34.60;97419.97;10376034;28;1866;-58
2021/12/17 12:27:39;;;;;;;;;;;;;;;21.59;34.77;97423.41;10377366;28;1777;-56
2021/12/17 12:32:59;;;;;;;;;;;;;;;21.60;34.62;97425.00;10394223;28;2188;-57
2021/12/17 12:38:12;;;;;;;;;;;;;;;21.52;34.58;97430.69;10393303;28;2113;-56
2021/12/17 12:43:28;;;;;;;;;;;;;;;21.53;34.84;97432.28;10401821;28;1854;-57
2021/12/17 12:48:39;;;;;;;;;;;;;;;21.55;34.55;97433.66;10393251;28;1730;-57
2021/12/17 12:53:43;;;;;;;;;;;;;;;21.53;34.56;97440.22;10402676;28;1898;-59
2021/12/17 12:58:46;;;;;;;;;;;;;;;21.53;34.94;97434.94;10395597;28;1885;-67
2021/12/17 13:03:46;;;;;;;;;;;;;;;21.52;34.59;97426.22;10403102;28;1923;-58
2021/12/17 13:08:53;;;;;;;;;;;;;;;21.56;34.69;97419.41;10396744;28;1832;-57
2021/12/17 13:13:56;;;;;;;;;;;;;;;21.59;34.27;97423.41;10391346;28;1973;-57
2021/12/17 13:24:17;;;;;;;;;;;;;;;21.55;34.43;97424.94;10399473;28;1755;-58
2021/12/17 13:29:23;;;;;;;;;;;;;;;21.53;34.23;97438.38;10398510;28;1856;-58
2021/12/17 13:34:29;;;;;;;;;;;;;;;21.47;34.33;97443.81;10399299;28;1910;-55
2021/12/17 13:39:32;;;;;;;;;;;;;;;21.44;34.17;97428.44;10399319;28;1898;-56
2021/12/17 13:44:33;;;;;;;;;;;;;;;21.41;34.03;97437.63;10400976;28;1871;-54
2021/12/17 13:49:33;;;;;;;;;;;;;;;21.35;34.16;97443.84;10398067;28;2211;-57
2021/12/17 13:54:33;;;;;;;;;;;;;;;21.30;34.51;97450.88;10393578;28;1914;-59
2021/12/17 13:59:35;;;;;;;;;;;;;;;21.29;34.32;97455.34;10390951;28;1843;-57
2021/12/17 14:04:36;;;;;;;;;;;;;;;21.26;34.27;97457.66;10407558;28;1883;-57
2021/12/17 14:09:36;;;;;;;;;;;;;;;21.20;34.09;97467.34;10402728;28;1782;-58
2021/12/17 14:14:37;;;;;;;;;;;;;;;21.16;33.93;97463.56;10407749;28;1976;-53
2021/12/17 14:19:38;;;;;;;;;;;;;;;21.12;33.92;97469.56;10398653;28;1897;-56
2021/12/17 14:24:38;;;;;;;;;;;;;;;21.11;34.13;97475.84;10403538;28;2031;-56
2021/12/17 14:29:39;;;;;;;;;;;;;;;21.03;34.06;97469.13;10401370;28;1882;-57
2021/12/17 14:34:40;;;;;;;;;;;;;;;21.00;34.01;97462.44;10407098;28;1961;-56
2021/12/17 14:39:44;;;;;;;;;;;;;;;20.96;34.02;97460.50;10402141;28;2042;-57
2021/12/17 14:44:53;;;;;;;;;;;;;;;20.90;34.08;97456.97;10402474;28;1874;-58
2021/12/17 15:00:47;;;;;;;;;;;;;;;20.82;33.91;97452.09;10405271;28;1748;-57
2021/12/17 15:05:48;;;;;;;;;;;;;;;20.80;33.72;97446.25;10391147;28;2049;-54
2021/12/17 15:10:48;;;;;;;;;;;;;;;20.72;34.02;97438.72;10405582;28;1859;-55
2021/12/17 15:15:49;;;;;;;;;;;;;;;20.75;33.73;97440.84;10403704;28;1963;-56
2021/12/17 15:20:50;;;;;;;;;;;;;;;20.70;33.83;97451.31;10403205;28;1843;-54
2021/12/17 15:25:51;;;;;;;;;;;;;;;20.67;33.71;97453.63;10386252;28;1807;-57
2021/12/17 15:30:52;;;;;;;;;;;;;;;20.66;33.88;97454.66;10401689;28;1810;-58
2021/12/17 15:35:53;;;;;;;;;;;;;;;20.64;33.87;97451.44;10407192;28;1918;-53
2021/12/17 15:40:53;;;;;;;;;;;;;;;20.61;34.00;97446.66;10403199;28;1795;-55
2021/12/17 15:45:54;;;;;;;;;;;;;;;20.54;34.13;97444.13;10400660;28;1958;-58
2021/12/17 15:50:54;;;;;;;;;;;;;;;20.53;34.02;97445.16;10415978;28;1842;-59
2021/12/17 15:55:54;;;;;;;;;;;;;;;20.52;33.97;97450.66;10401045;28;1957;-57
2021/12/17 16:00:55;;;;;;;;;;;;;;;20.45;33.92;97442.09;10399321;28;1879;-59
2021/12/17 16:05:56;;;;;;;;;;;;;;;20.47;34.05;97445.28;10405783;28;1789;-56
2021/12/17 16:21:22;;;;;;;;;;;;;;;20.42;33.66;97434.66;10398071;28;2148;-57
2021/12/17 16:26:23;;;;;;;;;;;;;;;20.36;33.87;97439.00;10400839;28;1791;-56
2021/12/17 16:31:24;;;;;;;;;;;;;;;20.35;33.79;97447.13;10395116;28;1767;-56
2021/12/17 16:36:25;;;;;;;;;;;;;;;20.32;33.78;97443.13;10400843;28;1906;-55
2021/12/17 16:41:26;;;;;;;;;;;;;;;20.34;33.90;97442.91;10401534;28;1895;-56
2021/12/17 16:51:39;;;;;;;;;;;;;;;20.28;33.83;97460.41;10404970;28;2634;-57
2021/12/17 16:56:39;;;;;;;;;;;;;;;20.25;33.66;97461.72;10400834;28;1973;-58
2021/12/17 17:01:40;;;;;;;;;;;;;;;20.25;33.59;97463.53;10400449;28;1817;-55
2021/12/17 17:06:40;;;;;;;;;;;;;;;20.24;33.81;97465.34;10399355;28;1819;-56
2021/12/17 17:11:43;;;;;;;;;;;;;;;20.21;33.49;97460.56;10403799;28;1827;-57
2021/12/17 17:16:44;;;;;;;;;;;;;;;20.20;33.75;97458.13;10400468;28;1906;-57
2021/12/17 17:21:44;;;;;;;;;;;;;;;20.18;33.80;97460.97;10402661;28;2470;-54
2021/12/17 17:26:45;;;;;;;;;;;;;;;20.17;33.68;97450.69;10401553;28;2222;-56
2021/12/17 17:31:45;;;;;;;;;;;;;;;20.12;33.74;97442.66;10396199;28;2140;-59
2021/12/17 17:36:46;;;;;;;;;;;;;;;20.12;33.72;97432.94;10400174;28;2241;-57
2021/12/17 17:41:46;;;;;;;;;;;;;;;20.08;33.86;97436.25;10402420;28;1937;-58
2021/12/17 17:46:47;;;;;;;;;;;;;;;20.09;33.67;97443.13;10406509;28;1897;-57
2021/12/17 17:51:48;;;;;;;;;;;;;;;20.06;33.76;97433.06;10401947;28;1894;-54
2021/12/17 17:56:48;;;;;;;;;;;;;;;20.04;33.88;97446.44;10397647;28;2123;-55
2021/12/17 18:01:49;;;;;;;;;;;;;;;20.03;33.82;97458.00;10401728;28;1858;-58
2021/12/17 18:06:49;;;;;;;;;;;;;;;20.03;33.56;97462.47;10400585;28;1863;-57
2021/12/17 18:11:50;;;;;;;;;;;;;;;20.00;33.57;97474.25;10408943;28;1840;-54
2021/12/17 18:16:51;;;;;;;;;;;;;;;19.99;33.78;97466.59;10403027;28;1910;-59
2021/12/17 18:21:52;;;;;;;;;;;;;;;19.95;33.73;97475.97;10402801;28;1977;-56
2021/12/17 18:26:52;;;;;;;;;;;;;;;19.93;33.87;97478.81;10408060;28;1829;-57
2021/12/17 18:31:53;;;;;;;;;;;;;;;19.89;33.79;97475.03;10401542;28;1845;-57
2021/12/17 18:36:53;;;;;;;;;;;;;;;19.93;33.61;97475.38;10403730;28;1969;-58
2021/12/17 18:47:13;;;;;;;;;;;;;;;19.85;33.68;97467.81;10408945;28;1843;-57
2021/12/17 18:52:13;;;;;;;;;;;;;;;19.88;33.75;97473.47;10413945;28;1806;-57
2021/12/17 18:57:14;;;;;;;;;;;;;;;19.83;33.73;97483.03;10408499;28;1954;-57
2021/12/17 19:02:14;;;;;;;;;;;;;;;19.77;33.80;97487.38;10406382;28;2181;-58
2021/12/17 19:07:14;;;;;;;;;;;;;;;19.81;33.50;97488.53;10409049;28;1815;-58
2021/12/17 19:12:15;;;;;;;;;;;;;;;19.75;33.76;97481.56;10415135;28;1977;-58
2021/12/17 19:17:15;;;;;;;;;;;;;;;19.77;33.61;97483.94;10411018;28;1971;-57
2021/12/17 19:22:28;;;;;;;;;;;;;;;19.77;33.59;97497.09;10408018;28;2010;-57
2021/12/17 19:27:29;;;;;;;;;;;;;;;19.77;33.59;97491.84;10402706;28;1882;-57
2021/12/17 19:32:30;;;;;;;;;;;;;;;19.73;33.45;97499.41;10406127;28;1830;-58
2021/12/17 19:37:30;;;;;;;;;;;;;;;19.69;33.73;97515.84;10405690;28;1969;-58
2021/12/17 19:42:31;;;;;;;;;;;;;;;19.69;33.72;97521.13;10406819;28;1882;-58
2021/12/17 19:47:42;;;;;;;;;;;;;;;19.70;33.68;97512.22;10404067;28;1863;-56
2021/12/17 19:52:43;;;;;;;;;;;;;;;19.70;33.50;97501.69;10402658;28;1914;-58
2021/12/17 19:57:43;;;;;;;;;;;;;;;19.70;33.42;97504.31;10399591;28;1898;-58
2021/12/17 20:02:49;;;;;;;;;;;;;;;19.65;33.52;97499.72;10383779;28;1975;-58
2021/12/17 20:07:50;;;;;;;;;;;;;;;19.61;33.60;97503.84;10403043;28;2147;-58
2021/12/17 20:12:50;;;;;;;;;;;;;;;19.65;33.50;97504.19;10401795;28;1956;-58
2021/12/17 20:17:51;;;;;;;;;;;;;;;19.60;33.48;97496.19;10399652;28;1973;-58
2021/12/17 20:22:51;;;;;;;;;;;;;;;19.60;33.46;97488.28;10396580;28;1947;-58
2021/12/17 20:27:52;;;;;;;;;;;;;;;19.59;33.48;97494.56;10403014;28;1862;-58
2021/12/17 20:32:52;;;;;;;;;;;;;;;19.60;33.38;97496.94;10397563;28;1910;-58
2021/12/17 20:37:52;;;;;;;;;;;;;;;19.58;33.42;97492.97;10403652;28;1882;-58
2021/12/17 20:43:18;;;;;;;;;;;;;;;19.55;33.49;97483.69;10396499;28;1806;-57
2021/12/17 20:48:14;;;;;;;;;;;;;;;19.53;33.57;97484.94;10400068;28;1883;-58
2021/12/17 20:53:14;;;;;;;;;;;;;;;19.51;33.36;97485.16;10399074;28;2183;-58
2021/12/17 20:58:14;;;;;;;;;;;;;;;19.47;33.54;97489.28;10399936;28;1973;-59
2021/12/17 21:03:15;;;;;;;;;;;;;;;19.47;33.58;97503.22;10401617;28;1819;-58
2021/12/17 21:08:16;;;;;;;;;;;;;;;19.49;33.38;97487.22;10398163;28;1954;-57
2021/12/17 21:13:17;;;;;;;;;;;;;;;19.44;33.50;97497.59;10399918;28;1991;-56
2021/12/17 21:18:17;;;;;;;;;;;;;;;19.44;33.50;97498.41;10400463;28;1891;-55
2021/12/17 21:23:18;;;;;;;;;;;;;;;19.42;33.50;97503.09;10400550;28;2054;-57
2021/12/17 21:28:19;;;;;;;;;;;;;;;19.39;33.35;97498.25;10378430;28;1862;-58
2021/12/17 21:33:22;;;;;;;;;;;;;;;19.40;33.51;97507.78;10403073;28;1922;-59
2021/12/17 21:38:23;;;;;;;;;;;;;;;19.37;33.46;97516.09;10397465;28;1879;-59
2021/12/17 21:43:23;;;;;;;;;;;;;;;19.40;33.40;97520.91;10401098;28;1991;-59
2021/12/17 21:48:24;;;;;;;;;;;;;;;19.35;33.48;97523.41;10398732;28;1882;-58
2021/12/17 21:53:24;;;;;;;;;;;;;;;19.34;33.40;97527.06;10398689;28;1910;-58
2021/12/17 21:58:24;;;;;;;;;;;;;;;19.34;33.40;97528.91;10395778;28;1854;-58
2021/12/17 22:03:25;;;;;;;;;;;;;;;19.30;33.48;97528.50;10397619;28;1882;-54
2021/12/17 22:08:26;;;;;;;;;;;;;;;19.33;33.30;97535.97;10397908;28;1826;-58
2021/12/17 22:13:27;;;;;;;;;;;;;;;19.29;33.44;97526.91;10402965;28;1907;-58
2021/12/17 22:18:27;;;;;;;;;;;;;;;19.31;33.26;97524.84;10404063;28;1889;-58
2021/12/17 22:23:28;;;;;;;;;;;;;;;19.29;33.33;97531.34;10407086;28;2005;-57
2021/12/17 22:28:28;;;;;;;;;;;;;;;19.26;33.34;97519.47;10399215;28;1872;-58
2021/12/17 22:33:29;;;;;;;;;;;;;;;19.30;33.15;97514.56;10407250;28;2001;-57
2021/12/17 22:38:30;;;;;;;;;;;;;;;19.25;33.35;97512.59;10395604;28;2020;-58
2021/12/17 22:43:34;;;;;;;;;;;;;;;19.21;33.27;97514.06;10407977;28;1837;-56
2021/12/17 22:48:34;;;;;;;;;;;;;;;19.23;33.22;97506.75;10409026;28;2016;-58
2021/12/17 22:53:35;;;;;;;;;;;;;;;19.19;33.39;97526.63;10401718;28;1906;-59
2021/12/17 22:58:35;;;;;;;;;;;;;;;19.18;33.28;97527.66;10402881;28;1824;-58
2021/12/17 23:03:41;;;;;;;;;;;;;;;19.19;33.29;97526.63;10405243;28;2308;-57
2021/12/17 23:14:05;;;;;;;;;;;;;;;19.14;33.37;97529.13;10405813;28;1969;-59
2021/12/17 23:19:05;;;;;;;;;;;;;;;19.15;33.24;97543.88;10401540;28;1890;-58
2021/12/17 23:24:06;;;;;;;;;;;;;;;19.13;33.28;97531.97;10402573;28;1841;-58
2021/12/17 23:29:06;;;;;;;;;;;;;;;19.10;33.35;97522.69;10400319;28;2181;-59
2021/12/17 23:34:10;;;;;;;;;;;;;;;19.12;33.26;97509.34;10404844;28;1979;-57
2021/12/17 23:39:11;;;;;;;;;;;;;;;19.08;33.38;97506.34;10402692;28;1842;-58
2021/12/17 23:44:11;;;;;;;;;;;;;;;19.08;33.21;97498.44;10400271;28;1999;-58
2021/12/17 23:49:12;;;;;;;;;;;;;;;19.08;33.26;97482.69;10399978;28;1873;-59
2021/12/17 23:54:12;;;;;;;;;;;;;;;19.08;33.27;97480.03;10384036;28;1970;-59
2021/12/17 23:59:13;;;;;;;;;;;;;;;19.07;33.30;97475.84;10397916;28;1936;-59
